This is the latest recevied weather packets stored in our database for station/object KO6HRZ. If no packets are shown the sender has not sent any weather packets the latest 10 day(s).
| Time | Temp. | Humidity | Pressure | Rain* | Wind** | Luminosity | Snow |
|---|---|---|---|---|---|---|---|
| 1788380045 | 27.22° C | 51% | 1015.6 hPa | 0 mm | - | 788 W/m² | - |
| 1788379440 | 26.11° C | 51% | 1015.8 hPa | 0 mm | - | 905 W/m² | - |
| 1788378835 | 26.11° C | 53% | 1015.6 hPa | 0 mm | - | 292 W/m² | - |
| 1788378230 | 26.67° C | 52% | 1015.9 hPa | 0 mm | - | 829 W/m² | - |
| 1788377627 | 25.56° C | 53% | 1016.1 hPa | 0 mm | - | 439 W/m² | - |
| 1788377024 | 25° C | 56% | 1016.1 hPa | 0 mm | - | 431 W/m² | - |
| 1788376420 | 25° C | 56% | 1016.2 hPa | 0 mm | - | 425 W/m² | - |
| 1788375821 | 25° C | 54% | 1016.3 hPa | 0 mm | - | 382 W/m² | - |
| 1788375218 | 25° C | 56% | 1016.2 hPa | 0 mm | - | 398 W/m² | - |
| 1788374615 | 25° C | 56% | 1016.3 hPa | 0 mm | - | 381 W/m² | - |
| 1788374012 | 25.56° C | 54% | 1016.3 hPa | 0 mm | - | 861 W/m² | - |
| 1788373410 | 24.44° C | 56% | 1016.3 hPa | 0 mm | - | 382 W/m² | - |
| 1788372807 | 24.44° C | 56% | 1016.2 hPa | 0 mm | - | 470 W/m² | - |
| 1788372203 | 23.89° C | 57% | 1016.3 hPa | 0 mm | - | 535 W/m² | - |
| 1788371599 | 23.89° C | 58% | 1016.1 hPa | 0 mm | - | 372 W/m² | - |
| 1788370997 | 24.44° C | 57% | 1016.4 hPa | 0 mm | - | 447 W/m² | - |
| 1788370392 | 24.44° C | 57% | 1016.3 hPa | 0 mm | - | 440 W/m² | - |
| 1788369792 | 23.89° C | 59% | 1016.2 hPa | 0 mm | - | 519 W/m² | - |
| 1788369188 | 23.33° C | 60% | 1016 hPa | 0 mm | - | 530 W/m² | - |
| 1788368586 | 22.22° C | 63% | 1016.1 hPa | 0 mm | - | 451 W/m² | - |
| 1788367981 | 21.67° C | 64% | 1016.1 hPa | 0 mm | - | 180 W/m² | - |
| 1788367376 | 21.67° C | 65% | 1016.1 hPa | 0 mm | - | 387 W/m² | - |
| 1788366771 | 20° C | 70% | 1015.8 hPa | 0 mm | - | 301 W/m² | - |
| 1788366170 | 19.44° C | 71% | 1016 hPa | 0 mm | - | 172 W/m² | - |
| 1788365566 | 19.44° C | 72% | 1016 hPa | 0 mm | - | 180 W/m² | - |
* Rain latest hour (hover to see other rain measurements)
** Current wind speed in m/s (hover to see current wind gust speed)